EST,Max TemperatureF,Mean TemperatureF,Min TemperatureF,Max Dew PointF,MeanDew PointF,Min DewpointF,Max Humidity, Mean Humidity, Min Humidity, Max Sea Level PressureIn, Mean Sea Level PressureIn, Min Sea Level PressureIn, Max VisibilityMiles, Mean VisibilityMiles, Min VisibilityMiles, Max Wind SpeedMPH, Mean Wind SpeedMPH, Max Gust SpeedMPH,PrecipitationIn, CloudCover, Events, WindDirDegrees
2013-12-1,55,41,27,31,28,24,85,62,38,30.38,30.20,30.04,10,9,6,10,1,13,0.00,3,,220
2013-12-2,59,45,30,34,30,27,92,62,31,30.02,29.94,29.87,10,9,6,9,1,10,0.00,2,,170
2013-12-3,59,46,32,42,36,30,89,66,43,30.03,29.96,29.90,10,9,6,12,2,14,0.00,6,,174
2013-12-4,58,53,47,54,49,42,93,84,74,30.11,30.07,30.02,8,5,2,10,3,18,0.06,8,Rain,159
2013-12-5,66,60,53,63,58,52,97,92,87,30.13,30.07,30.01,7,4,1,22,7,29,0.05,7,Rain,187
2013-12-6,71,58,45,63,57,43,93,86,78,30.13,30.01,29.95,10,8,4,20,11,24,T,8,Rain,210
2013-12-7,45,40,35,42,34,26,92,75,58,30.54,30.35,30.10,10,9,4,20,11,24,0.36,8,Rain,9
2013-12-8,35,34,32,31,29,22,89,75,61,30.56,30.47,30.30,10,5,2,17,8,21,0.97,8,Rain,11
2013-12-9,42,38,33,39,35,31,96,91,85,30.29,30.15,30.05,10,6,2,12,5,15,0.37,8,Rain,239
2013-12-10,39,34,29,37,35,24,92,81,69,30.30,30.08,29.98,10,6,0,13,6,17,0.24,7,Fog-Rain,7
2013-12-11,46,36,26,25,22,20,85,61,37,30.45,30.34,30.28,10,10,10,12,5,14,0.00,1,,226
2013-12-12,39,32,24,24,19,12,78,56,33,30.45,30.36,30.28,10,10,10,17,5,23,0.00,2,,350
2013-12-13,48,36,23,26,16,11,68,46,24,30.37,30.32,30.27,10,10,10,14,6,18,0.00,4,,234
2013-12-14,47,41,35,45,34,24,100,71,42,30.33,30.11,29.77,10,6,2,18,7,22,0.98,8,Rain,82
2013-12-15,54,45,36,39,33,23,100,71,41,30.02,29.81,29.69,10,8,2,18,9,22,T,4,Rain,265
2013-12-16,48,39,30,32,27,24,82,64,45,30.18,30.12,30.02,10,10,10,10,5,14,0.00,4,,248
2013-12-17,54,43,31,40,35,30,93,72,50,30.13,30.03,29.93,10,8,4,21,6,26,0.46,7,Rain,232
2013-12-18,46,38,30,39,28,20,96,67,37,30.27,30.17,29.97,10,9,4,17,7,23,0.00,2,,268
2013-12-19,63,46,29,29,25,21,72,48,23,30.26,30.23,30.17,10,10,10,20,8,25,0.00,4,,195
2013-12-20,66,54,41,51,41,28,86,68,49,30.22,30.16,30.08,10,10,10,24,11,29,0.00,8,,197
2013-12-21,72,61,50,62,53,47,89,72,55,30.13,30.07,30.01,10,10,10,23,12,28,0.00,7,,196
2013-12-22,76,69,62,65,62,60,93,81,69,30.09,30.03,29.95,10,7,1,31,13,38,0.67,7,Rain,210
2013-12-23,67,55,43,64,57,32,93,79,65,30.21,30.05,29.99,10,8,2,25,12,31,0.60,8,Rain,246
2013-12-24,45,37,28,31,22,6,67,53,39,30.49,30.29,30.21,10,10,10,21,13,26,0.00,4,,341
2013-12-25,35,29,22,18,11,6,74,56,38,30.61,30.52,30.43,10,10,10,18,5,22,0.00,0,,17
2013-12-26,50,36,21,25,21,17,88,59,29,30.41,30.33,30.25,10,10,10,14,4,18,0.00,2,,234
2013-12-27,52,39,25,28,22,17,85,56,26,30.48,30.41,30.38,10,10,9,12,3,13,0.00,1,,192
2013-12-28,62,45,27,29,23,20,70,47,23,30.39,30.31,30.18,10,10,10,17,6,22,0.00,5,,202
2013-12-29,56,50,43,54,45,33,100,71,42,30.18,29.85,29.61,10,7,1,23,9,29,1.35,6,Rain,186
2013-12-30,55,47,38,39,35,27,82,67,51,30.19,30.04,29.90,10,10,10,15,7,17,0.00,6,,316
2013-12-31,51,41,30,32,25,18,78,54,29,30.37,30.22,30.17,10,10,7,18,6,23,T,4,Snow,258